createdAt,value
2017-05-31T00:00:04.014Z,17.17
2017-05-31T00:02:30.443Z,17.12
2017-05-31T00:04:56.816Z,17.49
2017-05-31T00:07:23.288Z,18.42
2017-05-31T00:09:49.709Z,17.58
2017-05-31T00:12:16.175Z,19.11
2017-05-31T00:14:42.572Z,19.05
2017-05-31T00:17:08.956Z,19.36
2017-05-31T00:19:35.354Z,19.61
2017-05-31T00:22:01.749Z,19.42
2017-05-31T00:24:28.139Z,17.34
2017-05-31T00:26:54.570Z,16.84
2017-05-31T00:29:20.980Z,17.67
2017-05-31T00:31:47.348Z,17.42
2017-05-31T00:34:13.752Z,17.11
2017-05-31T00:36:40.127Z,17.72
2017-05-31T00:39:06.525Z,16.07
2017-05-31T00:41:32.899Z,16.26
2017-05-31T00:43:59.269Z,16.52
2017-05-31T00:46:25.675Z,16.96
2017-05-31T00:48:52.074Z,17.89
2017-05-31T00:51:18.489Z,18.63
2017-05-31T00:53:44.899Z,19.16
2017-05-31T00:56:11.299Z,18.01
2017-05-31T00:58:37.692Z,18.99
2017-05-31T01:01:04.088Z,18.24
2017-05-31T01:03:30.464Z,16.93
2017-05-31T01:05:56.939Z,16.94
2017-05-31T01:08:23.332Z,17.08
2017-05-31T01:10:49.723Z,15.97
2017-05-31T01:13:16.104Z,16.24
2017-05-31T01:15:42.495Z,16.77
2017-05-31T01:18:08.901Z,16.03
2017-05-31T01:20:35.335Z,16.77
2017-05-31T01:23:01.743Z,16.08
2017-05-31T01:25:28.155Z,16.39
2017-05-31T01:27:54.540Z,16.32
2017-05-31T01:30:20.955Z,16.92
2017-05-31T01:32:47.330Z,17.38
2017-05-31T01:35:13.753Z,17.39
2017-05-31T01:37:40.141Z,16.83
2017-05-31T01:40:06.535Z,17.87
2017-05-31T01:42:32.961Z,18.35
2017-05-31T01:44:59.372Z,18.34
2017-05-31T01:47:25.787Z,18.68
2017-05-31T01:49:52.212Z,18.39
2017-05-31T01:52:18.618Z,18.58
2017-05-31T01:54:45.002Z,18.39
2017-05-31T01:57:11.383Z,17.41
2017-05-31T01:59:37.784Z,17.30
2017-05-31T02:02:04.192Z,17.17
2017-05-31T02:04:30.579Z,18.82
2017-05-31T02:06:56.977Z,18.66
2017-05-31T02:09:23.517Z,18.72
2017-05-31T02:11:49.923Z,18.37
2017-05-31T02:14:16.327Z,18.77
2017-05-31T02:16:42.718Z,18.69
2017-05-31T02:19:09.091Z,17.80
2017-05-31T02:21:35.481Z,17.88
2017-05-31T02:24:01.901Z,18.46
2017-05-31T02:26:28.309Z,19.19
2017-05-31T02:28:54.706Z,19.02
2017-05-31T02:31:21.102Z,18.04
2017-05-31T02:33:47.469Z,18.49
2017-05-31T02:36:13.868Z,17.38
2017-05-31T02:38:40.311Z,18.72
2017-05-31T02:41:06.694Z,18.89
2017-05-31T02:43:33.070Z,18.87
2017-05-31T02:45:59.484Z,18.45
2017-05-31T02:48:25.878Z,18.68
2017-05-31T02:50:52.266Z,17.76
2017-05-31T02:53:18.663Z,17.56
2017-05-31T02:55:45.194Z,17.05
2017-05-31T02:58:11.582Z,18.26
2017-05-31T03:00:37.983Z,18.72
2017-05-31T03:03:04.486Z,18.71
2017-05-31T03:05:30.866Z,17.35
2017-05-31T03:07:57.269Z,16.60
2017-05-31T03:10:23.666Z,16.18
2017-05-31T03:12:50.100Z,16.49
2017-05-31T03:15:16.493Z,17.94
2017-05-31T03:17:42.945Z,16.98
2017-05-31T03:20:09.488Z,18.30
2017-05-31T03:22:36.002Z,18.46
2017-05-31T03:25:02.395Z,17.95
2017-05-31T03:27:28.802Z,18.44
2017-05-31T03:29:55.207Z,17.58
2017-05-31T03:32:21.588Z,17.99
2017-05-31T03:34:47.994Z,18.42
2017-05-31T03:37:14.410Z,18.06
2017-05-31T03:39:40.878Z,18.45
2017-05-31T03:42:07.282Z,17.46
2017-05-31T03:44:33.665Z,18.43
2017-05-31T03:47:00.055Z,18.71
2017-05-31T03:49:26.452Z,18.52
2017-05-31T03:51:52.854Z,17.80
2017-05-31T03:54:19.257Z,18.11
2017-05-31T03:56:45.633Z,18.17
2017-05-31T03:59:12.013Z,18.57
2017-05-31T04:01:38.412Z,17.96
2017-05-31T04:04:04.783Z,18.02
2017-05-31T04:06:31.214Z,18.44
2017-05-31T04:08:57.612Z,18.10
2017-05-31T04:11:23.993Z,18.48
2017-05-31T04:13:50.401Z,17.69
2017-05-31T04:16:16.788Z,18.26
2017-05-31T04:18:43.158Z,17.93
2017-05-31T04:21:09.573Z,18.56
2017-05-31T04:23:35.968Z,18.51
2017-05-31T04:26:02.406Z,18.54
2017-05-31T04:28:28.786Z,17.77
2017-05-31T04:30:55.245Z,18.36
2017-05-31T04:33:21.620Z,18.05
2017-05-31T04:35:48.017Z,17.90
2017-05-31T04:38:14.440Z,18.04
2017-05-31T04:40:40.811Z,17.72
2017-05-31T04:43:07.309Z,17.64
2017-05-31T04:45:33.695Z,18.15
2017-05-31T04:48:00.077Z,18.26
2017-05-31T04:50:26.467Z,18.21
2017-05-31T04:52:52.875Z,18.18
2017-05-31T04:55:19.298Z,18.44
2017-05-31T04:57:45.744Z,18.07
2017-05-31T05:00:12.138Z,18.15
2017-05-31T05:02:38.545Z,17.94
2017-05-31T05:05:04.958Z,17.69
2017-05-31T05:07:31.317Z,17.12
2017-05-31T05:09:57.799Z,18.40
2017-05-31T05:12:24.217Z,17.57
2017-05-31T05:14:50.604Z,18.31
2017-05-31T05:17:17.013Z,18.26
2017-05-31T05:19:43.430Z,18.59
2017-05-31T05:22:09.848Z,18.59
2017-05-31T05:24:36.231Z,18.39
2017-05-31T05:27:02.655Z,18.18
2017-05-31T05:29:29.062Z,18.63
2017-05-31T05:31:55.934Z,18.70
2017-05-31T05:34:22.315Z,18.81
2017-05-31T05:36:48.727Z,17.63
2017-05-31T05:39:15.099Z,18.26
2017-05-31T05:41:41.493Z,18.53
2017-05-31T05:44:07.900Z,17.61
2017-05-31T05:46:34.300Z,18.04
2017-05-31T05:49:00.677Z,18.89
2017-05-31T05:51:27.083Z,18.85
2017-05-31T05:53:53.506Z,18.37
2017-05-31T05:56:19.801Z,17.26
2017-05-31T05:58:46.129Z,17.49
2017-05-31T06:01:12.464Z,18.61
2017-05-31T06:03:38.799Z,17.82
2017-05-31T06:06:05.140Z,18.28
2017-05-31T06:08:31.478Z,18.24
2017-05-31T06:10:57.865Z,17.98
2017-05-31T06:13:24.202Z,18.67
2017-05-31T06:15:50.528Z,17.75
2017-05-31T06:18:16.856Z,19.24
2017-05-31T06:20:43.245Z,19.16
2017-05-31T06:23:09.616Z,18.73
2017-05-31T06:25:35.941Z,19.09
2017-05-31T06:28:02.268Z,18.71
2017-05-31T06:30:28.574Z,19.14
2017-05-31T06:32:54.935Z,19.14
2017-05-31T06:35:21.258Z,18.63
2017-05-31T06:37:47.589Z,19.29
2017-05-31T06:40:13.898Z,18.81
2017-05-31T06:42:40.258Z,17.94
2017-05-31T06:45:06.588Z,18.22
2017-05-31T06:47:32.949Z,18.94
2017-05-31T06:49:59.299Z,19.02
2017-05-31T06:52:25.626Z,19.25
2017-05-31T06:54:51.981Z,19.13
2017-05-31T06:57:18.309Z,18.34
2017-05-31T06:59:44.656Z,18.73
2017-05-31T07:02:11.039Z,18.84
2017-05-31T07:04:37.363Z,19.21
2017-05-31T07:07:03.674Z,19.40
2017-05-31T07:09:30.040Z,19.40
2017-05-31T07:11:56.382Z,19.37
2017-05-31T07:14:22.698Z,19.03
2017-05-31T07:16:49.010Z,18.62
2017-05-31T07:19:15.354Z,18.73
2017-05-31T07:21:41.687Z,19.38
2017-05-31T07:24:08.007Z,19.65
2017-05-31T07:26:34.345Z,19.80
2017-05-31T07:29:00.682Z,19.67
2017-05-31T07:31:27.045Z,19.97
2017-05-31T07:33:53.417Z,19.54
2017-05-31T07:36:19.734Z,20.28
2017-05-31T07:38:46.374Z,19.84
2017-05-31T07:41:12.698Z,20.18
2017-05-31T07:43:39.027Z,20.55
2017-05-31T07:46:05.416Z,20.63
2017-05-31T07:48:31.775Z,20.84
2017-05-31T07:50:58.103Z,20.95
2017-05-31T07:53:24.431Z,20.77
2017-05-31T07:55:50.790Z,20.95
2017-05-31T07:58:17.132Z,21.15
2017-05-31T08:00:43.501Z,20.53
2017-05-31T08:03:09.836Z,20.31
2017-05-31T08:05:36.191Z,21.15
2017-05-31T08:08:02.540Z,20.94
2017-05-31T08:10:28.892Z,20.46
2017-05-31T08:12:55.226Z,20.45
2017-05-31T08:15:21.582Z,20.78
2017-05-31T08:17:47.940Z,21.30
2017-05-31T08:20:14.282Z,21.34
2017-05-31T08:22:40.634Z,21.39
2017-05-31T08:25:07.012Z,21.18
2017-05-31T08:27:33.351Z,20.24
2017-05-31T08:29:59.692Z,20.42
2017-05-31T08:32:26.050Z,21.06
2017-05-31T08:34:52.403Z,21.34
2017-05-31T08:37:18.743Z,21.99
2017-05-31T08:39:45.092Z,22.14
2017-05-31T08:42:11.443Z,22.42
2017-05-31T08:44:37.803Z,22.49
2017-05-31T08:47:04.145Z,21.44
2017-05-31T08:49:30.486Z,22.23
2017-05-31T08:51:56.836Z,22.56
2017-05-31T08:54:23.167Z,22.45
2017-05-31T08:56:49.512Z,22.68
2017-05-31T08:59:15.850Z,22.79
2017-05-31T09:01:42.181Z,23.03
2017-05-31T09:04:08.536Z,22.49
2017-05-31T09:06:34.874Z,22.17
2017-05-31T09:09:01.222Z,23.18
2017-05-31T09:11:27.561Z,23.25
2017-05-31T09:13:53.916Z,23.58
2017-05-31T09:16:20.251Z,22.52
2017-05-31T09:18:46.610Z,22.88
2017-05-31T09:21:12.976Z,21.78
2017-05-31T09:23:39.290Z,22.08
2017-05-31T09:26:05.618Z,22.40
2017-05-31T09:28:31.959Z,23.70
2017-05-31T09:30:58.306Z,24.24
2017-05-31T09:33:24.667Z,22.90
2017-05-31T09:35:51.028Z,24.03
2017-05-31T09:38:17.373Z,22.98
2017-05-31T09:40:43.729Z,24.39
2017-05-31T09:43:10.086Z,23.26
2017-05-31T09:45:36.419Z,24.46
2017-05-31T09:48:02.750Z,24.78
2017-05-31T09:50:29.129Z,24.92
2017-05-31T09:52:55.548Z,24.15
2017-05-31T09:55:21.896Z,25.08
2017-05-31T09:57:48.234Z,25.09
2017-05-31T10:00:14.624Z,23.99
2017-05-31T10:02:41.004Z,23.54
2017-05-31T10:05:07.365Z,23.97
2017-05-31T10:07:33.682Z,24.10
2017-05-31T10:10:00.088Z,23.72
2017-05-31T10:12:26.508Z,24.60
2017-05-31T10:14:52.858Z,24.42
2017-05-31T10:17:19.246Z,23.84
2017-05-31T10:19:45.608Z,24.82
2017-05-31T10:22:11.957Z,25.13
2017-05-31T10:24:38.337Z,25.05
2017-05-31T10:27:04.680Z,25.69
2017-05-31T10:29:31.014Z,25.04
2017-05-31T10:31:57.377Z,25.04
2017-05-31T10:34:23.708Z,24.55
2017-05-31T10:36:50.035Z,24.72
2017-05-31T10:39:16.409Z,24.99
2017-05-31T10:41:42.746Z,24.57
2017-05-31T10:44:09.086Z,25.29
2017-05-31T10:46:35.453Z,24.77
2017-05-31T10:49:01.842Z,24.40
2017-05-31T10:51:28.201Z,24.68
2017-05-31T10:53:54.545Z,25.89
2017-05-31T10:56:20.884Z,26.32
2017-05-31T10:58:47.242Z,24.82
2017-05-31T11:01:13.591Z,26.27
2017-05-31T11:03:39.974Z,26.55
2017-05-31T11:06:06.322Z,26.43
2017-05-31T11:08:32.658Z,26.46
2017-05-31T11:10:58.994Z,25.78
2017-05-31T11:13:25.374Z,25.54
2017-05-31T11:15:51.707Z,25.14
2017-05-31T11:18:18.073Z,25.13
2017-05-31T11:20:44.428Z,24.95
2017-05-31T11:23:10.778Z,25.39
2017-05-31T11:25:37.119Z,24.12
2017-05-31T11:28:03.456Z,25.15
2017-05-31T11:30:29.841Z,24.25
2017-05-31T11:32:56.178Z,24.09
2017-05-31T11:35:22.564Z,25.12
2017-05-31T11:37:48.923Z,25.12
2017-05-31T11:40:15.283Z,24.67
2017-05-31T11:42:41.621Z,24.20
2017-05-31T11:45:07.957Z,23.86
2017-05-31T11:47:34.333Z,23.99
2017-05-31T11:50:00.697Z,23.84
2017-05-31T11:52:27.033Z,23.54
2017-05-31T11:54:53.773Z,23.78
2017-05-31T11:57:20.129Z,23.31
2017-05-31T11:59:46.472Z,24.30
2017-05-31T12:02:12.825Z,24.55
2017-05-31T12:04:39.197Z,24.57
2017-05-31T12:07:05.538Z,25.04
2017-05-31T12:09:31.905Z,25.52
2017-05-31T12:11:58.650Z,25.42
2017-05-31T12:14:25.015Z,25.27
2017-05-31T12:16:51.369Z,24.95
2017-05-31T12:19:17.710Z,25.53
2017-05-31T12:21:44.056Z,25.02
2017-05-31T12:24:10.400Z,25.65
2017-05-31T12:26:36.740Z,26.20
2017-05-31T12:29:03.117Z,25.94
2017-05-31T12:31:29.754Z,26.67
2017-05-31T12:33:56.115Z,25.53
2017-05-31T12:36:22.482Z,26.02
2017-05-31T12:38:48.856Z,26.56
2017-05-31T12:41:15.233Z,26.40
2017-05-31T12:43:41.660Z,26.48
2017-05-31T12:46:07.986Z,26.28
2017-05-31T12:48:34.386Z,26.16
2017-05-31T12:51:00.846Z,26.92
2017-05-31T12:53:27.150Z,26.65
2017-05-31T12:55:53.494Z,26.92
2017-05-31T12:58:19.810Z,27.46
2017-05-31T13:00:46.203Z,27.32
2017-05-31T13:03:12.547Z,27.54
2017-05-31T13:05:38.901Z,27.15
2017-05-31T13:08:05.234Z,26.82
2017-05-31T13:10:31.638Z,26.25
2017-05-31T13:12:57.982Z,26.11
2017-05-31T13:15:24.314Z,25.62
2017-05-31T13:17:50.632Z,26.61
2017-05-31T13:20:16.996Z,26.87
2017-05-31T13:22:43.321Z,26.40
2017-05-31T13:25:09.995Z,26.32
2017-05-31T13:27:36.401Z,26.56
2017-05-31T13:30:02.752Z,26.53
2017-05-31T13:32:29.074Z,27.04
2017-05-31T13:34:55.443Z,26.55
2017-05-31T13:37:21.787Z,26.48
2017-05-31T13:39:48.178Z,26.15
2017-05-31T13:42:14.512Z,26.31
2017-05-31T13:44:40.855Z,26.26
2017-05-31T13:47:07.225Z,26.95
2017-05-31T13:49:33.595Z,27.42
2017-05-31T13:51:59.899Z,27.30
2017-05-31T13:54:26.253Z,26.63
2017-05-31T13:56:52.618Z,26.34
2017-05-31T13:59:18.965Z,26.79
2017-05-31T14:01:45.310Z,26.70
2017-05-31T14:04:11.665Z,27.04
2017-05-31T14:06:38.004Z,27.04
2017-05-31T14:09:04.372Z,26.93
2017-05-31T14:11:30.716Z,27.40
2017-05-31T14:13:57.075Z,27.40
2017-05-31T14:16:23.516Z,28.02
2017-05-31T14:18:49.862Z,27.23
2017-05-31T14:21:16.197Z,27.60
2017-05-31T14:23:42.505Z,28.07
2017-05-31T14:26:08.854Z,28.60
2017-05-31T14:28:35.207Z,28.26
2017-05-31T14:31:01.565Z,28.16
2017-05-31T14:33:27.901Z,28.81
2017-05-31T14:35:54.231Z,28.66
2017-05-31T14:38:20.563Z,28.31
2017-05-31T14:40:46.900Z,27.73
2017-05-31T14:43:13.247Z,27.84
2017-05-31T14:45:39.600Z,28.33
2017-05-31T14:48:05.944Z,28.33
2017-05-31T14:50:32.295Z,27.58
2017-05-31T14:52:58.638Z,26.78
2017-05-31T14:55:25.031Z,27.85
2017-05-31T14:57:51.359Z,27.39
2017-05-31T15:00:17.697Z,27.10
2017-05-31T15:02:44.003Z,27.57
2017-05-31T15:05:10.336Z,28.40
2017-05-31T15:07:36.664Z,27.99
2017-05-31T15:10:02.993Z,28.27
2017-05-31T15:12:29.315Z,28.21
2017-05-31T15:14:55.634Z,27.70
2017-05-31T15:17:21.993Z,27.38
2017-05-31T15:19:48.355Z,27.85
2017-05-31T15:22:14.678Z,27.13
2017-05-31T15:24:41.014Z,26.68
2017-05-31T15:27:07.364Z,26.74
2017-05-31T15:29:33.677Z,26.54
2017-05-31T15:32:00.022Z,26.46
2017-05-31T15:34:26.343Z,26.32
2017-05-31T15:36:52.654Z,26.18
2017-05-31T15:39:18.981Z,26.09
2017-05-31T15:41:45.414Z,26.09
2017-05-31T15:44:11.765Z,25.72
2017-05-31T15:46:38.112Z,25.72
2017-05-31T15:49:04.443Z,25.16
2017-05-31T15:51:30.828Z,24.93
2017-05-31T15:53:57.330Z,24.42
2017-05-31T15:56:23.679Z,24.59
2017-05-31T15:58:50.065Z,24.49
2017-05-31T16:01:16.410Z,24.48
2017-05-31T16:03:42.749Z,24.36
2017-05-31T16:06:09.097Z,24.64
2017-05-31T16:08:35.467Z,24.29
2017-05-31T16:11:01.830Z,24.36
2017-05-31T16:13:28.169Z,24.42
2017-05-31T16:15:54.517Z,24.34
2017-05-31T16:18:20.850Z,24.37
2017-05-31T16:20:47.205Z,24.59
2017-05-31T16:23:13.558Z,24.65
2017-05-31T16:25:39.914Z,24.19
2017-05-31T16:28:06.229Z,24.09
2017-05-31T16:30:32.553Z,24.32
2017-05-31T16:32:58.894Z,24.07
2017-05-31T16:35:25.212Z,23.80
2017-05-31T16:37:51.574Z,24.07
2017-05-31T16:40:17.898Z,23.80
2017-05-31T16:42:44.227Z,23.75
2017-05-31T16:45:10.560Z,23.72
2017-05-31T16:47:36.923Z,23.78
2017-05-31T16:50:03.268Z,23.20
2017-05-31T16:52:29.618Z,23.63
2017-05-31T16:54:55.971Z,23.79
2017-05-31T16:57:22.328Z,23.72
2017-05-31T16:59:48.669Z,23.42
2017-05-31T17:02:15.017Z,23.18
2017-05-31T17:04:41.354Z,23.28
2017-05-31T17:07:07.702Z,23.40
2017-05-31T17:09:34.074Z,23.17
2017-05-31T17:12:00.388Z,23.35
2017-05-31T17:14:26.721Z,23.39
2017-05-31T17:16:53.070Z,23.58
2017-05-31T17:19:19.406Z,24.10
2017-05-31T17:21:45.737Z,24.07
2017-05-31T17:24:12.066Z,23.89
2017-05-31T17:26:38.481Z,23.94
2017-05-31T17:29:04.826Z,24.36
2017-05-31T17:31:31.143Z,24.07
2017-05-31T17:33:57.518Z,24.11
2017-05-31T17:36:23.838Z,23.77
2017-05-31T17:38:50.178Z,23.93
2017-05-31T17:41:16.491Z,24.24
2017-05-31T17:43:42.861Z,23.96
2017-05-31T17:46:09.209Z,23.87
2017-05-31T17:48:35.550Z,24.12
2017-05-31T17:51:01.892Z,24.26
2017-05-31T17:53:28.228Z,24.15
2017-05-31T17:55:54.572Z,23.79
2017-05-31T17:58:20.885Z,23.97
2017-05-31T18:00:47.237Z,24.05
2017-05-31T18:03:13.582Z,24.07
2017-05-31T18:05:39.947Z,23.70
2017-05-31T18:08:06.298Z,23.64
2017-05-31T18:10:32.655Z,23.34
2017-05-31T18:12:59.000Z,23.16
2017-05-31T18:15:25.316Z,23.16
2017-05-31T18:17:51.640Z,22.86
2017-05-31T18:20:17.971Z,22.99
2017-05-31T18:22:44.294Z,23.08
2017-05-31T18:25:10.746Z,23.17
2017-05-31T18:27:37.126Z,23.14
2017-05-31T18:30:03.460Z,23.07
2017-05-31T18:32:29.815Z,22.91
2017-05-31T18:34:56.254Z,22.88
2017-05-31T18:37:22.655Z,22.87
2017-05-31T18:39:49.030Z,22.46
2017-05-31T18:42:15.444Z,22.67
2017-05-31T18:44:41.833Z,22.76
2017-05-31T18:47:08.217Z,22.83
2017-05-31T18:49:34.592Z,22.50
2017-05-31T18:52:00.958Z,22.25
2017-05-31T18:54:27.333Z,22.08
2017-05-31T18:56:53.684Z,21.93
2017-05-31T18:59:20.038Z,22.14
2017-05-31T19:01:46.415Z,21.88
2017-05-31T19:04:12.806Z,22.18
2017-05-31T19:06:39.211Z,22.26
2017-05-31T19:09:05.596Z,22.36
2017-05-31T19:11:31.952Z,21.99
2017-05-31T19:13:58.307Z,22.20
2017-05-31T19:16:24.786Z,22.28
2017-05-31T19:18:51.191Z,22.14
2017-05-31T19:21:17.866Z,22.35
2017-05-31T19:23:44.431Z,21.95
2017-05-31T19:26:10.828Z,22.30
2017-05-31T19:28:37.317Z,22.12
2017-05-31T19:31:03.705Z,22.21
2017-05-31T19:33:30.063Z,22.28
2017-05-31T19:35:56.490Z,22.11
2017-05-31T19:38:22.833Z,21.89
2017-05-31T19:40:49.222Z,21.94
2017-05-31T19:43:15.602Z,22.01
2017-05-31T19:45:41.969Z,21.93
2017-05-31T19:48:08.341Z,21.58
2017-05-31T19:50:34.751Z,21.82
2017-05-31T19:53:01.097Z,21.95
2017-05-31T19:55:27.457Z,21.64
2017-05-31T19:57:53.824Z,21.61
2017-05-31T20:00:20.239Z,21.62
2017-05-31T20:02:46.601Z,21.08
2017-05-31T20:05:12.955Z,21.21
2017-05-31T20:07:39.361Z,21.47
2017-05-31T20:10:05.754Z,20.89
2017-05-31T20:12:32.171Z,21.03
2017-05-31T20:14:58.549Z,20.36
2017-05-31T20:17:24.930Z,19.86
2017-05-31T20:19:51.295Z,19.89
2017-05-31T20:22:17.656Z,19.69
2017-05-31T20:24:44.062Z,19.65
2017-05-31T20:27:10.892Z,19.56
2017-05-31T20:29:37.220Z,19.16
2017-05-31T20:32:03.883Z,19.91
2017-05-31T20:34:30.420Z,20.08
2017-05-31T20:36:56.854Z,21.25
2017-05-31T20:39:23.210Z,21.69
2017-05-31T20:41:49.589Z,21.76
2017-05-31T20:44:15.934Z,21.71
2017-05-31T20:46:42.354Z,21.61
2017-05-31T20:49:08.777Z,21.47
2017-05-31T20:51:35.125Z,21.37
2017-05-31T20:54:01.462Z,21.22
2017-05-31T20:56:27.851Z,20.61
2017-05-31T20:58:54.203Z,21.18
2017-05-31T21:01:20.560Z,21.42
2017-05-31T21:03:46.945Z,21.48
2017-05-31T21:06:13.310Z,20.89
2017-05-31T21:08:39.719Z,20.17
2017-05-31T21:11:06.091Z,18.75
2017-05-31T21:13:32.391Z,18.10
2017-05-31T21:15:58.738Z,18.34
2017-05-31T21:18:25.088Z,18.45
2017-05-31T21:20:51.449Z,20.65
2017-05-31T21:23:17.791Z,20.85
2017-05-31T21:25:44.129Z,20.73
2017-05-31T21:28:10.538Z,20.87
2017-05-31T21:30:36.889Z,20.78
2017-05-31T21:33:03.230Z,19.81
2017-05-31T21:35:29.559Z,20.35
2017-05-31T21:37:55.902Z,20.58
2017-05-31T21:40:22.255Z,20.59
2017-05-31T21:42:48.602Z,19.45
2017-05-31T21:45:14.951Z,18.77
2017-05-31T21:47:41.309Z,18.69
2017-05-31T21:50:11.365Z,17.88
2017-05-31T21:52:40.347Z,19.05
2017-05-31T21:55:06.722Z,19.90
2017-05-31T21:57:34.293Z,20.14
2017-05-31T22:00:00.873Z,20.42
2017-05-31T22:02:27.223Z,20.15
2017-05-31T22:04:55.150Z,20.46
2017-05-31T22:07:21.493Z,20.25
2017-05-31T22:09:50.801Z,20.39
2017-05-31T22:12:17.211Z,20.32
2017-05-31T22:14:46.816Z,20.08
2017-05-31T22:17:14.448Z,20.30
2017-05-31T22:19:40.781Z,20.34
2017-05-31T22:22:09.543Z,20.17
2017-05-31T22:24:36.070Z,20.12
2017-05-31T22:27:04.842Z,19.96
2017-05-31T22:29:31.183Z,20.11
2017-05-31T22:31:57.507Z,20.28
2017-05-31T22:34:23.851Z,20.10
2017-05-31T22:36:50.871Z,19.50
2017-05-31T22:39:17.331Z,17.61
2017-05-31T22:41:43.893Z,17.88
2017-05-31T22:44:10.229Z,18.27
2017-05-31T22:46:36.609Z,19.37
2017-05-31T22:49:04.760Z,18.46
2017-05-31T22:51:31.199Z,17.82
2017-05-31T22:53:57.660Z,16.82
2017-05-31T22:56:23.971Z,16.83
2017-05-31T22:58:50.299Z,16.96
2017-05-31T23:01:19.586Z,18.01
2017-05-31T23:03:45.905Z,18.68
2017-05-31T23:06:14.354Z,18.51
2017-05-31T23:08:40.854Z,16.63
2017-05-31T23:11:09.234Z,17.68
2017-05-31T23:13:35.754Z,17.48
2017-05-31T23:16:02.137Z,17.05
2017-05-31T23:18:28.474Z,17.15
2017-05-31T23:20:54.781Z,16.65
2017-05-31T23:23:21.095Z,17.09
2017-05-31T23:25:47.473Z,16.51
2017-05-31T23:28:13.800Z,16.28
2017-05-31T23:30:40.193Z,16.32
2017-05-31T23:33:06.554Z,16.58
2017-05-31T23:35:32.929Z,16.41
2017-05-31T23:37:59.284Z,16.15
2017-05-31T23:40:25.640Z,17.20
2017-05-31T23:42:51.976Z,16.57
2017-05-31T23:45:18.342Z,16.39
2017-05-31T23:47:44.666Z,16.66
2017-05-31T23:50:10.989Z,16.55
2017-05-31T23:52:37.310Z,16.98
2017-05-31T23:55:03.764Z,16.68
2017-05-31T23:57:30.184Z,17.20
2017-05-31T23:59:56.629Z,16.95
